createdAt,value
2023-03-30T00:05:13.022Z,10.69
2023-03-30T00:10:40.783Z,10.67
2023-03-30T00:16:05.815Z,10.66
2023-03-30T00:21:30.808Z,10.66
2023-03-30T00:26:58.804Z,10.68
2023-03-30T00:32:23.861Z,10.67
2023-03-30T00:37:52.907Z,10.68
2023-03-30T00:43:21.859Z,10.65
2023-03-30T00:48:50.049Z,10.61
2023-03-30T00:54:20.818Z,10.61
2023-03-30T00:59:47.802Z,10.57
2023-03-30T01:05:15.977Z,10.59
2023-03-30T01:10:40.900Z,10.63
2023-03-30T01:16:19.892Z,10.71
2023-03-30T01:22:11.843Z,10.76
2023-03-30T01:27:57.863Z,10.75
2023-03-30T01:33:59.814Z,10.77
2023-03-30T01:39:41.869Z,10.74
2023-03-30T01:45:16.867Z,10.76
2023-03-30T01:50:48.860Z,10.80
2023-03-30T01:56:20.085Z,10.80
2023-03-30T02:01:56.884Z,10.75
2023-03-30T02:07:25.880Z,10.71
2023-03-30T02:12:51.826Z,10.67
2023-03-30T02:18:19.895Z,10.63
2023-03-30T02:23:47.882Z,10.58
2023-03-30T02:29:12.901Z,10.59
2023-03-30T02:35:03.882Z,10.47
2023-03-30T02:40:47.918Z,10.46
2023-03-30T02:46:37.914Z,10.45
2023-03-30T02:52:08.860Z,10.39
2023-03-30T02:57:43.889Z,10.30
2023-03-30T03:03:37.946Z,10.22
2023-03-30T03:09:05.893Z,10.13
2023-03-30T03:14:32.894Z,10.13
2023-03-30T03:19:57.965Z,10.00
2023-03-30T03:25:25.120Z,9.90
2023-03-30T03:30:53.948Z,9.78
2023-03-30T03:36:20.970Z,9.74
2023-03-30T03:41:48.910Z,9.73
2023-03-30T03:47:14.559Z,9.70
2023-03-30T03:52:40.944Z,9.68
2023-03-30T03:58:07.918Z,9.59
2023-03-30T04:03:32.982Z,9.68
2023-03-30T04:08:56.932Z,9.72
2023-03-30T04:14:42.934Z,9.72
2023-03-30T04:20:29.983Z,9.73
2023-03-30T04:26:08.060Z,9.72
2023-03-30T04:31:58.953Z,9.79
2023-03-30T04:37:36.985Z,10.00
2023-03-30T04:43:26.959Z,10.01
2023-03-30T04:49:23.932Z,10.13
2023-03-30T04:55:07.031Z,10.15
2023-03-30T05:00:47.918Z,10.40
2023-03-30T05:06:30.985Z,10.67
2023-03-30T05:12:13.967Z,11.03
2023-03-30T05:18:06.046Z,11.43
2023-03-30T05:24:09.102Z,11.54
2023-03-30T05:30:04.015Z,11.47
2023-03-30T05:35:49.055Z,11.46
2023-03-30T05:41:34.948Z,11.32
2023-03-30T05:47:23.081Z,11.14
2023-03-30T05:52:56.982Z,11.03
2023-03-30T05:59:00.148Z,10.93
2023-03-30T06:04:43.052Z,10.87
2023-03-30T06:10:08.996Z,10.93
2023-03-30T06:15:37.996Z,10.99
2023-03-30T06:21:09.013Z,11.15
2023-03-30T06:26:48.069Z,11.22
2023-03-30T06:32:17.080Z,11.22
2023-03-30T06:38:00.045Z,11.24
2023-03-30T06:43:28.096Z,11.33
2023-03-30T06:49:08.218Z,11.49
2023-03-30T06:54:36.010Z,11.63
2023-03-30T07:00:01.006Z,11.83
2023-03-30T07:05:34.997Z,11.97
2023-03-30T07:11:07.246Z,12.10
2023-03-30T07:16:33.046Z,12.20
2023-03-30T07:22:01.292Z,12.24
2023-03-30T07:27:27.027Z,12.32
2023-03-30T07:32:56.266Z,12.40
2023-03-30T07:38:26.002Z,12.51
2023-03-30T07:43:52.391Z,12.52
2023-03-30T07:49:17.028Z,12.44
2023-03-30T07:54:44.323Z,12.39
2023-03-30T08:00:21.039Z,12.34
2023-03-30T08:06:11.066Z,12.35
2023-03-30T08:11:43.058Z,12.31
2023-03-30T08:17:07.036Z,12.26
2023-03-30T08:22:33.088Z,12.22
2023-03-30T08:28:00.045Z,12.12
2023-03-30T08:33:26.066Z,12.04
2023-03-30T08:38:53.078Z,12.04
2023-03-30T08:44:28.054Z,12.07
2023-03-30T08:49:58.062Z,11.97
2023-03-30T08:55:33.043Z,11.99
2023-03-30T09:01:05.220Z,12.01
2023-03-30T09:06:37.059Z,12.03
2023-03-30T09:12:06.081Z,12.07
2023-03-30T09:17:40.090Z,12.10
2023-03-30T09:23:05.076Z,12.13
2023-03-30T09:28:37.073Z,12.11
2023-03-30T09:34:14.357Z,12.19
2023-03-30T09:39:40.114Z,12.28
2023-03-30T09:45:08.071Z,12.36
2023-03-30T09:50:38.121Z,12.48
2023-03-30T09:56:16.109Z,12.69
2023-03-30T10:01:47.117Z,12.94
2023-03-30T10:07:18.910Z,13.23
2023-03-30T10:12:44.103Z,13.40
2023-03-30T10:18:09.158Z,13.60
2023-03-30T10:23:46.136Z,13.75
2023-03-30T10:29:13.109Z,13.76
2023-03-30T10:34:50.120Z,13.91
2023-03-30T10:40:25.119Z,14.05
2023-03-30T10:45:55.106Z,14.25
2023-03-30T10:51:27.135Z,14.32
2023-03-30T10:56:59.138Z,14.64
2023-03-30T11:02:41.193Z,14.73
2023-03-30T11:08:11.286Z,14.82
2023-03-30T11:13:41.164Z,14.92
2023-03-30T11:19:10.231Z,14.87
2023-03-30T11:24:44.127Z,14.89
2023-03-30T11:30:22.153Z,14.89
2023-03-30T11:35:52.228Z,15.00
2023-03-30T11:41:23.150Z,15.02
2023-03-30T11:46:59.235Z,15.29
2023-03-30T11:52:35.142Z,15.40
2023-03-30T11:57:57.144Z,15.56
2023-03-30T12:03:36.347Z,15.57
2023-03-30T12:09:14.211Z,15.93
2023-03-30T12:14:56.190Z,16.02
2023-03-30T12:20:29.336Z,15.89
2023-03-30T12:26:17.199Z,15.67
2023-03-30T12:32:13.210Z,15.86
2023-03-30T12:37:45.168Z,15.82
2023-03-30T12:43:18.203Z,16.01
2023-03-30T12:48:58.211Z,16.40
2023-03-30T12:54:40.281Z,16.32
2023-03-30T13:00:23.197Z,16.04
2023-03-30T13:05:51.201Z,15.83
2023-03-30T13:11:28.231Z,16.14
2023-03-30T13:17:21.240Z,16.63
2023-03-30T13:22:47.217Z,16.43
2023-03-30T13:28:45.794Z,16.73
2023-03-30T13:34:23.719Z,16.64
2023-03-30T13:39:59.220Z,16.31
2023-03-30T13:45:48.827Z,16.53
2023-03-30T13:51:15.423Z,16.97
2023-03-30T13:56:42.281Z,16.54
2023-03-30T14:02:13.316Z,13.90
2023-03-30T14:07:42.339Z,11.98
2023-03-30T14:13:10.265Z,11.21
2023-03-30T14:18:41.265Z,10.75
2023-03-30T14:24:06.343Z,10.54
2023-03-30T14:29:38.271Z,10.26
2023-03-30T14:35:06.243Z,10.10
2023-03-30T14:40:35.060Z,10.05
2023-03-30T14:46:03.333Z,9.98
2023-03-30T14:51:53.273Z,9.95
2023-03-30T14:57:21.322Z,9.92
2023-03-30T15:02:50.321Z,9.93
2023-03-30T15:08:29.086Z,9.90
2023-03-30T15:13:58.284Z,9.87
2023-03-30T15:19:30.296Z,9.86
2023-03-30T15:24:59.276Z,9.84
2023-03-30T15:30:37.788Z,9.85
2023-03-30T15:36:06.354Z,9.83
2023-03-30T15:41:54.306Z,9.92
2023-03-30T15:47:21.307Z,10.09
2023-03-30T15:52:51.298Z,10.33
2023-03-30T15:58:19.407Z,10.92
2023-03-30T16:03:48.379Z,11.54
2023-03-30T16:09:13.321Z,11.80
2023-03-30T16:14:44.338Z,11.96
2023-03-30T16:20:09.369Z,12.31
2023-03-30T16:25:45.298Z,12.39
2023-03-30T16:31:16.379Z,12.40
2023-03-30T16:36:41.321Z,12.53
2023-03-30T16:42:07.440Z,12.69
2023-03-30T16:47:34.336Z,12.90
2023-03-30T16:52:59.420Z,12.88
2023-03-30T16:58:26.343Z,12.78
2023-03-30T17:03:55.332Z,12.64
2023-03-30T17:09:19.441Z,12.40
2023-03-30T17:14:46.332Z,11.94
2023-03-30T17:20:16.336Z,11.53
2023-03-30T17:25:43.367Z,11.31
2023-03-30T17:31:11.117Z,11.14
2023-03-30T17:36:39.356Z,10.95
2023-03-30T17:42:06.349Z,10.77
2023-03-30T17:47:31.461Z,10.65
2023-03-30T17:52:58.358Z,10.67
2023-03-30T17:58:26.358Z,10.43
2023-03-30T18:03:51.418Z,10.38
2023-03-30T18:09:24.350Z,10.25
2023-03-30T18:14:48.369Z,10.21
2023-03-30T18:20:32.404Z,10.09
2023-03-30T18:25:59.419Z,10.03
2023-03-30T18:31:24.448Z,9.92
2023-03-30T18:36:48.412Z,9.87
2023-03-30T18:42:16.399Z,9.89
2023-03-30T18:47:40.395Z,9.87
2023-03-30T18:53:05.408Z,9.84
2023-03-30T18:58:34.403Z,9.84
2023-03-30T19:03:59.396Z,9.89
2023-03-30T19:09:33.100Z,9.90
2023-03-30T19:15:04.404Z,9.93
2023-03-30T19:20:30.407Z,9.91
2023-03-30T19:25:55.414Z,9.96
2023-03-30T19:31:25.455Z,10.01
2023-03-30T19:36:50.407Z,9.86
2023-03-30T19:42:14.465Z,9.76
2023-03-30T19:47:42.453Z,9.68
2023-03-30T19:53:07.427Z,9.71
2023-03-30T19:58:34.679Z,9.69
2023-03-30T20:04:01.477Z,9.74
2023-03-30T20:09:26.417Z,9.76
2023-03-30T20:14:57.432Z,9.85
2023-03-30T20:20:31.470Z,9.90
2023-03-30T20:26:03.459Z,9.91
2023-03-30T20:31:28.477Z,9.92
2023-03-30T20:36:56.451Z,9.87
2023-03-30T20:42:24.450Z,9.83
2023-03-30T20:47:48.534Z,9.90
2023-03-30T20:53:16.450Z,10.00
2023-03-30T20:58:40.456Z,9.86
2023-03-30T21:04:07.503Z,9.81
2023-03-30T21:09:35.470Z,9.78
2023-03-30T21:15:00.489Z,9.70
2023-03-30T21:20:26.485Z,9.70
2023-03-30T21:25:54.479Z,9.79
2023-03-30T21:31:23.523Z,9.95
2023-03-30T21:36:49.584Z,9.92
2023-03-30T21:42:17.493Z,9.99
2023-03-30T21:47:42.499Z,9.91
2023-03-30T21:53:07.506Z,9.90
2023-03-30T21:58:35.485Z,9.94
2023-03-30T22:04:00.514Z,9.91
2023-03-30T22:09:24.466Z,9.84
2023-03-30T22:14:59.474Z,9.80
2023-03-30T22:20:25.487Z,9.72
2023-03-30T22:25:49.484Z,9.59
2023-03-30T22:31:19.586Z,9.42
2023-03-30T22:36:45.478Z,9.35
2023-03-30T22:42:10.504Z,9.28
2023-03-30T22:47:37.541Z,9.21
2023-03-30T22:53:02.687Z,9.15
2023-03-30T22:58:27.539Z,9.13
2023-03-30T23:03:55.683Z,9.17
2023-03-30T23:09:35.644Z,9.10
2023-03-30T23:20:54.570Z,9.01
2023-03-30T23:31:42.664Z,8.86
2023-03-30T23:37:15.579Z,8.77
2023-03-30T23:42:41.612Z,8.69
2023-03-30T23:53:31.584Z,8.55
2023-03-30T23:58:56.633Z,8.58
